Time;durP1;ratioP1;P1;durP2;ratioP2;P2;SDS_P1;SDS_P2;PMS_P1;PMS_P2;Temp;Humidity;BMP_temperature;BMP_pressure;BME280_temperature;BME280_humidity;BME280_pressure;Samples;Min_cycle;Max_cycle;Signal;HPM_P1;HPM_P2
2022/03/09 00:01:54;;;;;;;0.00;0.00;;;;;;;2.87;66.62;99032.13;4884095;29;20627;-78
2022/03/09 00:04:19;;;;;;;0.00;0.00;;;;;;;2.88;67.36;99025.81;4884558;29;20033;-78
2022/03/09 00:06:45;;;;;;;0.00;0.00;;;;;;;2.88;67.27;99027.63;4897197;29;20091;-78
2022/03/09 00:09:11;;;;;;;0.00;0.00;;;;;;;2.88;67.67;99022.34;4893623;29;20033;-77
2022/03/09 00:11:37;;;;;;;0.20;0.20;;;;;;;2.83;67.44;99023.06;4899906;29;20032;-77
2022/03/09 00:14:03;;;;;;;0.00;0.00;;;;;;;2.87;67.25;99023.41;4894065;29;20035;-77
2022/03/09 00:16:28;;;;;;;0.00;0.00;;;;;;;2.81;67.44;99019.03;4883090;29;20043;-77
2022/03/09 00:19:21;;;;;;;0.00;0.00;;;;;;;2.84;67.18;99015.91;4886310;29;20032;-80
2022/03/09 00:22:57;;;;;;;0.00;0.00;;;;;;;2.83;66.21;99019.59;4841111;29;20090;-80
2022/03/09 00:25:23;;;;;;;0.00;0.00;;;;;;;2.82;66.39;99015.31;4848138;29;20065;-79
2022/03/09 00:28:13;;;;;;;0.00;0.00;;;;;;;2.79;64.84;99013.16;4891657;29;20032;-81
2022/03/09 00:30:38;;;;;;;0.00;0.00;;;;;;;2.72;64.60;99008.78;4862847;29;20140;-80
2022/03/09 00:33:04;;;;;;;0.52;0.52;;;;;;;2.68;64.49;99007.59;4878003;29;20608;-79
2022/03/09 00:35:29;;;;;;;0.00;0.00;;;;;;;2.58;64.17;99007.34;4878720;29;20085;-78
2022/03/09 00:37:55;;;;;;;0.00;0.00;;;;;;;2.56;65.26;98998.84;4878822;29;20555;-79
2022/03/09 00:40:21;;;;;;;0.00;0.00;;;;;;;2.48;66.39;98999.97;4866395;29;20104;-77
2022/03/09 00:42:46;;;;;;;0.00;0.00;;;;;;;2.42;66.12;98994.75;4878938;29;20072;-79
2022/03/09 00:45:12;;;;;;;0.00;0.00;;;;;;;2.44;66.61;98995.34;4877258;29;20081;-78
2022/03/09 00:47:37;;;;;;;0.05;0.05;;;;;;;2.38;67.16;98991.75;4862963;29;20200;-79
2022/03/09 00:50:05;;;;;;;0.00;0.00;;;;;;;2.36;66.64;98989.34;4862998;29;20037;-79
2022/03/09 00:52:30;;;;;;;0.00;0.00;;;;;;;2.45;66.70;98989.84;4874088;29;20052;-78
2022/03/09 00:55:14;;;;;;;0.00;0.00;;;;;;;2.42;66.47;98992.94;4903040;29;20040;-80
2022/03/09 00:57:40;;;;;;;0.00;0.00;;;;;;;2.41;66.61;98991.31;4901478;29;20075;-78
2022/03/09 01:00:06;;;;;;;0.40;0.40;;;;;;;2.39;66.82;98981.00;4902715;29;20044;-79
2022/03/09 01:06:55;;;;;;;0.00;0.00;;;;;;;2.40;67.10;98985.25;4888494;29;20092;-80
2022/03/09 01:09:41;;;;;;;0.00;0.00;;;;;;;2.37;66.85;98979.63;4828301;29;20037;-78
2022/03/09 01:12:19;;;;;;;0.05;0.05;;;;;;;2.30;67.11;98979.69;4817286;29;20042;-83
2022/03/09 01:22:14;;;;;;;0.00;0.00;;;;;;;2.12;68.11;98975.25;4826995;29;20110;-80
2022/03/09 01:31:46;;;;;;;0.10;0.10;;;;;;;2.08;68.30;98977.53;4869819;29;19931;-81
2022/03/09 01:40:10;;;;;;;0.00;0.00;;;;;;;2.02;67.93;98973.13;4910954;24;20277;-79
2022/03/09 01:43:01;;;;;;;0.00;0.00;;;;;;;1.99;67.99;98973.59;4904561;29;20036;-80
2022/03/09 01:45:31;;;;;;;0.00;0.00;;;;;;;1.95;68.17;98980.31;4899126;29;20123;-77
2022/03/09 01:47:56;;;;;;;0.20;0.20;;;;;;;1.95;68.67;98979.53;4883529;29;20087;-79
2022/03/09 01:50:22;;;;;;;0.00;0.00;;;;;;;1.97;68.62;98978.28;4882928;29;20124;-76
2022/03/09 01:56:15;;;;;;;0.00;0.00;;;;;;;2.04;68.95;98970.28;4904776;29;20047;-78
2022/03/09 01:58:48;;;;;;;0.00;0.00;;;;;;;2.06;69.99;98976.97;4867860;29;20116;-77
2022/03/09 02:01:34;;;;;;;0.00;0.00;;;;;;;2.04;70.33;98972.94;4887992;29;20024;-79
2022/03/09 02:04:02;;;;;;;0.00;0.00;;;;;;;2.00;70.83;98972.56;4889207;29;20390;-77
2022/03/09 02:06:27;;;;;;;0.10;0.10;;;;;;;2.07;70.77;98967.19;4880641;29;20032;-77
2022/03/09 02:11:38;;;;;;;0.00;0.00;;;;;;;2.05;71.58;98972.69;4882275;29;20048;-78
2022/03/09 02:14:04;;;;;;;0.00;0.00;;;;;;;2.12;71.85;98974.44;4876030;29;20029;-77
2022/03/09 02:16:30;;;;;;;0.00;0.00;;;;;;;2.08;71.91;98968.81;4864904;29;20086;-78
2022/03/09 02:18:55;;;;;;;0.00;0.00;;;;;;;2.11;72.52;98972.84;4882638;29;20080;-76
2022/03/09 02:21:26;;;;;;;0.17;0.17;;;;;;;2.17;71.77;98972.78;4881710;29;20036;-76
2022/03/09 02:23:53;;;;;;;0.00;0.00;;;;;;;2.23;72.50;98977.16;4901731;29;20510;-77
2022/03/09 02:26:19;;;;;;;0.00;0.00;;;;;;;2.27;72.42;98966.13;4884156;29;20111;-76
2022/03/09 02:28:46;;;;;;;0.00;0.00;;;;;;;2.18;73.23;98968.28;4869819;29;20108;-76
2022/03/09 02:31:12;;;;;;;0.00;0.00;;;;;;;2.21;73.21;98971.28;4865131;29;20040;-76
2022/03/09 02:33:37;;;;;;;0.00;0.00;;;;;;;2.17;73.53;98966.66;4866475;29;20029;-77
2022/03/09 02:36:03;;;;;;;0.25;0.25;;;;;;;2.17;73.69;98964.03;4866969;29;20033;-76
2022/03/09 02:38:30;;;;;;;0.00;0.00;;;;;;;2.24;73.20;98960.25;4880772;29;20033;-76
2022/03/09 02:40:55;;;;;;;0.10;0.10;;;;;;;2.26;73.56;98965.34;4887326;29;20052;-77
2022/03/09 02:43:21;;;;;;;0.88;0.88;;;;;;;2.20;73.85;98958.31;4880443;29;20128;-77
2022/03/09 02:45:46;;;;;;;0.00;0.00;;;;;;;2.23;73.40;98963.13;4866745;29;20032;-76
2022/03/09 02:48:12;;;;;;;0.65;0.65;;;;;;;2.17;73.73;98969.31;4866796;29;20063;-76
2022/03/09 02:50:37;;;;;;;0.05;0.05;;;;;;;2.10;73.65;98958.03;4865943;29;20093;-77
2022/03/09 02:53:02;;;;;;;0.22;0.22;;;;;;;2.15;74.07;98961.63;4866829;29;20033;-77
2022/03/09 02:55:28;;;;;;;0.00;0.00;;;;;;;2.20;73.96;98963.59;4867191;29;20492;-76
2022/03/09 02:57:53;;;;;;;0.10;0.10;;;;;;;2.09;74.23;98959.88;4866014;29;20100;-76
2022/03/09 03:00:19;;;;;;;0.00;0.00;;;;;;;2.26;74.41;98969.81;4865904;29;20033;-77
2022/03/09 03:02:44;;;;;;;0.10;0.10;;;;;;;2.13;74.30;98968.94;4865589;29;20609;-77
2022/03/09 03:05:10;;;;;;;0.00;0.00;;;;;;;2.14;74.47;98964.50;4866579;29;20049;-77
2022/03/09 03:07:36;;;;;;;0.00;0.00;;;;;;;2.14;74.77;98967.13;4866282;29;20036;-77
2022/03/09 03:10:03;;;;;;;0.00;0.00;;;;;;;2.18;74.72;98965.66;4869086;29;20048;-77
2022/03/09 03:12:28;;;;;;;0.00;0.00;;;;;;;2.29;74.32;98972.00;4901113;29;20039;-77
2022/03/09 03:14:54;;;;;;;0.00;0.00;;;;;;;2.17;75.21;98967.50;4884451;29;20040;-77
2022/03/09 03:17:19;;;;;;;0.00;0.00;;;;;;;2.12;74.78;98969.97;4885283;29;20036;-77
2022/03/09 03:19:45;;;;;;;0.10;0.10;;;;;;;2.10;75.41;98966.78;4884040;29;20088;-77
2022/03/09 03:22:10;;;;;;;0.63;0.63;;;;;;;2.13;75.43;98965.50;4901235;29;20473;-77
2022/03/09 03:24:36;;;;;;;0.00;0.00;;;;;;;2.12;75.04;98971.81;4879532;29;20032;-78
2022/03/09 03:27:01;;;;;;;0.00;0.00;;;;;;;2.08;75.70;98974.88;4884236;29;20037;-78
2022/03/09 03:29:27;;;;;;;0.00;0.00;;;;;;;2.11;76.03;98975.47;4885069;29;20025;-78
2022/03/09 03:31:52;;;;;;;0.00;0.00;;;;;;;2.10;76.19;98977.31;4884598;29;20039;-77
2022/03/09 03:34:17;;;;;;;0.00;0.00;;;;;;;2.10;76.35;98972.03;4870701;29;20469;-77
2022/03/09 03:36:43;;;;;;;0.00;0.00;;;;;;;2.08;76.06;98971.44;4883233;29;20037;-77
2022/03/09 03:39:08;;;;;;;0.08;0.08;;;;;;;2.02;77.00;98970.50;4882857;29;20040;-77
2022/03/09 03:41:34;;;;;;;0.00;0.00;;;;;;;2.01;77.48;98973.34;4866209;29;20505;-78
2022/03/09 03:44:00;;;;;;;2.20;1.65;;;;;;;1.99;76.88;98978.88;4866298;29;20043;-78
2022/03/09 03:46:25;;;;;;;0.00;0.00;;;;;;;2.00;77.44;98974.38;4865124;29;20081;-78
2022/03/09 03:48:53;;;;;;;0.00;0.00;;;;;;;2.00;77.30;98969.09;4864835;29;20052;-78
2022/03/09 03:51:18;;;;;;;0.10;0.10;;;;;;;1.98;77.38;98979.06;4866010;29;20497;-77
2022/03/09 03:53:44;;;;;;;0.00;0.00;;;;;;;1.98;77.99;98979.06;4865468;29;20084;-77
2022/03/09 03:56:10;;;;;;;0.00;0.00;;;;;;;1.94;77.95;98978.69;4864483;29;20033;-78
2022/03/09 03:58:35;;;;;;;0.00;0.00;;;;;;;1.89;78.43;98982.03;4854291;29;20057;-78
2022/03/09 04:01:01;;;;;;;0.85;0.85;;;;;;;1.84;79.03;98976.59;4882937;29;20028;-77
2022/03/09 04:03:26;;;;;;;0.20;0.20;;;;;;;1.82;78.92;98981.28;4882410;29;20067;-78
2022/03/09 04:05:52;;;;;;;0.00;0.00;;;;;;;1.76;79.41;98976.91;4881214;29;20469;-78
2022/03/09 04:08:17;;;;;;;0.00;0.00;;;;;;;1.82;79.55;98975.19;4866666;29;20064;-77
2022/03/09 04:10:43;;;;;;;0.10;0.10;;;;;;;1.84;79.70;98978.44;4880982;29;20062;-77
2022/03/09 04:13:08;;;;;;;0.00;0.00;;;;;;;1.88;79.58;98976.94;4881567;29;20447;-77
2022/03/09 04:15:34;;;;;;;0.00;0.00;;;;;;;1.87;79.78;98973.50;4882311;29;20028;-77
2022/03/09 04:17:59;;;;;;;0.00;0.00;;;;;;;1.92;79.56;98976.28;4882293;29;20033;-78
2022/03/09 04:20:34;;;;;;;0.00;0.00;;;;;;;1.91;79.83;98976.53;4883442;29;20120;-80
2022/03/09 04:23:00;;;;;;;0.47;0.47;;;;;;;1.92;79.75;98983.41;4882776;29;20099;-78
2022/03/09 04:25:26;;;;;;;0.00;0.00;;;;;;;1.90;79.61;98977.53;4882649;29;20468;-77
2022/03/09 04:27:52;;;;;;;0.00;0.00;;;;;;;1.89;79.51;98974.09;4868203;29;20041;-79
2022/03/09 04:30:19;;;;;;;0.10;0.10;;;;;;;1.90;79.95;98975.72;4884202;29;20028;-78
2022/03/09 04:32:44;;;;;;;0.00;0.00;;;;;;;1.85;79.83;98978.19;4881599;29;20041;-77
2022/03/09 04:35:10;;;;;;;0.00;0.00;;;;;;;1.85;80.24;98983.47;4863977;29;20037;-77
2022/03/09 04:37:36;;;;;;;0.05;0.05;;;;;;;1.85;80.08;98983.47;4870467;29;20047;-76
2022/03/09 04:40:03;;;;;;;0.57;0.57;;;;;;;1.89;80.27;98991.75;4892909;29;20056;-77
2022/03/09 04:42:29;;;;;;;0.00;0.00;;;;;;;1.89;79.89;98989.94;4864897;29;20037;-77
2022/03/09 04:44:56;;;;;;;0.00;0.00;;;;;;;1.88;79.80;98992.78;4874638;29;20058;-78
2022/03/09 04:47:21;;;;;;;0.10;0.10;;;;;;;1.89;80.04;98989.13;4881197;29;20515;-78
2022/03/09 04:49:47;;;;;;;0.20;0.20;;;;;;;1.86;80.42;98989.56;4880508;29;20036;-77
2022/03/09 04:52:13;;;;;;;0.10;0.10;;;;;;;1.88;80.59;98993.59;4880381;29;20039;-79
2022/03/09 04:54:38;;;;;;;0.13;0.13;;;;;;;2.01;80.38;98994.47;4879903;29;20033;-79
2022/03/09 04:57:04;;;;;;;0.65;0.65;;;;;;;2.04;79.93;98991.41;4880149;29;20035;-79
2022/03/09 04:59:29;;;;;;;0.55;0.55;;;;;;;2.00;80.01;98993.66;4880339;29;20440;-77
2022/03/09 05:01:55;;;;;;;0.00;0.00;;;;;;;2.00;80.07;98995.47;4880138;29;20032;-79
2022/03/09 05:04:20;;;;;;;0.00;0.00;;;;;;;2.06;79.84;98999.88;4879922;29;20044;-79
2022/03/09 05:06:46;;;;;;;0.00;0.00;;;;;;;2.08;80.08;98997.84;4880046;29;20087;-79
2022/03/09 05:09:12;;;;;;;1.27;0.88;;;;;;;2.07;79.75;98994.38;4880084;29;20420;-79
2022/03/09 05:11:40;;;;;;;0.10;0.10;;;;;;;2.13;80.35;98994.53;4880152;29;20115;-81
2022/03/09 05:14:06;;;;;;;0.10;0.10;;;;;;;2.20;80.17;99001.34;4879955;29;20099;-80
2022/03/09 05:16:34;;;;;;;0.40;0.40;;;;;;;2.29;80.55;98996.56;4864536;29;20032;-79
2022/03/09 05:19:02;;;;;;;0.10;0.10;;;;;;;2.41;80.16;98996.59;4865037;29;20040;-80
2022/03/09 05:21:28;;;;;;;0.00;0.00;;;;;;;2.61;79.88;98996.31;4879123;29;20575;-79
2022/03/09 05:24:16;;;;;;;1.17;0.85;;;;;;;2.75;79.15;98996.13;4868191;29;20072;-82
2022/03/09 05:26:43;;;;;;;0.00;0.00;;;;;;;2.98;77.87;99006.78;4864308;29;20032;-80
2022/03/09 05:29:09;;;;;;;0.00;0.00;;;;;;;3.08;78.01;99010.69;4861225;29;20040;-79
2022/03/09 05:31:34;;;;;;;0.00;0.00;;;;;;;3.20;77.71;99020.25;4860987;29;20033;-79
2022/03/09 05:34:46;;;;;;;0.00;0.00;;;;;;;3.40;76.95;99021.75;4874954;29;20123;-81
2022/03/09 05:37:12;;;;;;;0.10;0.10;;;;;;;3.62;75.88;99021.97;4880105;29;20041;-79
2022/03/09 05:39:40;;;;;;;0.00;0.00;;;;;;;3.69;75.05;99020.03;4880064;29;20036;-81
2022/03/09 05:42:06;;;;;;;0.13;0.13;;;;;;;3.68;73.92;99026.34;4864396;29;20116;-78
2022/03/09 05:44:31;;;;;;;0.20;0.20;;;;;;;3.67;73.92;99032.69;4873492;29;20041;-79
2022/03/09 05:50:18;;;;;;;0.00;0.00;;;;;;;3.80;72.92;99042.22;4894648;29;20047;-80
2022/03/09 05:52:45;;;;;;;0.10;0.10;;;;;;;3.88;73.46;99027.81;4860849;29;20120;-80
2022/03/09 05:55:11;;;;;;;0.00;0.00;;;;;;;3.97;72.40;99033.59;4877471;29;20029;-79
2022/03/09 05:57:37;;;;;;;0.00;0.00;;;;;;;4.04;71.08;99025.50;4862915;29;20039;-79
2022/03/09 06:00:03;;;;;;;0.38;0.38;;;;;;;4.16;71.96;99032.38;4864405;29;20033;-79
2022/03/09 06:02:28;;;;;;;0.13;0.13;;;;;;;4.29;71.34;99035.81;4865479;29;20068;-79
2022/03/09 06:04:54;;;;;;;0.00;0.00;;;;;;;4.46;71.55;99041.16;4883995;29;20434;-79
2022/03/09 06:07:19;;;;;;;0.85;0.85;;;;;;;4.53;69.61;99039.19;4898129;29;20040;-78
2022/03/09 06:09:45;;;;;;;0.40;0.40;;;;;;;4.55;70.23;99033.66;4882813;29;20141;-79
2022/03/09 06:12:10;;;;;;;0.10;0.10;;;;;;;4.58;69.54;99039.28;4868855;29;20060;-78
2022/03/09 06:14:36;;;;;;;0.35;0.35;;;;;;;4.68;70.11;99038.66;4868691;29;20029;-79
2022/03/09 06:17:01;;;;;;;0.00;0.00;;;;;;;4.74;68.98;99044.88;4865069;29;20481;-79
2022/03/09 06:19:27;;;;;;;1.80;1.65;;;;;;;4.87;69.69;99049.88;4866119;29;20056;-79
2022/03/09 06:21:52;;;;;;;0.63;0.63;;;;;;;5.03;68.55;99053.59;4897982;29;20039;-80
2022/03/09 06:24:38;;;;;;;0.00;0.00;;;;;;;5.19;68.11;99059.94;4866212;29;20049;-81
2022/03/09 06:27:41;;;;;;;0.32;0.25;;;;;;;5.26;67.55;99052.66;4884278;29;20040;-82
2022/03/09 06:30:08;;;;;;;0.00;0.00;;;;;;;5.31;66.68;99053.75;4917047;29;20044;-81
2022/03/09 06:32:34;;;;;;;0.10;0.10;;;;;;;5.40;66.25;99060.28;4899253;29;20036;-79
2022/03/09 06:35:01;;;;;;;0.00;0.00;;;;;;;5.39;65.38;99062.13;4882530;29;20091;-80
2022/03/09 06:41:18;;;;;;;0.32;0.32;;;;;;;5.44;65.32;99070.19;4896332;29;20075;-81
2022/03/09 06:47:05;;;;;;;0.10;0.10;;;;;;;5.67;64.92;99073.69;4887361;29;20744;-79
2022/03/09 06:49:32;;;;;;;1.35;0.95;;;;;;;5.58;63.75;99070.63;4855351;29;20033;-80
2022/03/09 06:51:59;;;;;;;0.38;0.38;;;;;;;5.63;64.38;99074.41;4881342;29;20056;-79
2022/03/09 06:54:25;;;;;;;0.15;0.15;;;;;;;5.60;64.56;99065.91;4873965;29;20572;-79
2022/03/09 06:56:53;;;;;;;1.23;1.15;;;;;;;5.66;64.41;99069.41;4863115;29;20124;-79
2022/03/09 06:59:19;;;;;;;0.20;0.20;;;;;;;5.73;64.77;99070.06;4882085;29;20028;-79
2022/03/09 07:01:45;;;;;;;0.00;0.00;;;;;;;5.83;64.65;99065.94;4879764;29;20136;-78
2022/03/09 07:04:11;;;;;;;0.10;0.10;;;;;;;5.91;64.22;99071.66;4880449;29;20119;-78
2022/03/09 07:06:36;;;;;;;0.40;0.40;;;;;;;5.96;63.44;99070.91;4894399;29;20061;-78
2022/03/09 07:09:02;;;;;;;0.10;0.10;;;;;;;5.92;62.51;99065.28;4890138;29;20033;-79
2022/03/09 07:11:27;;;;;;;0.03;0.03;;;;;;;5.91;62.71;99062.88;4887971;29;20040;-79
2022/03/09 07:13:53;;;;;;;0.15;0.15;;;;;;;5.86;61.80;99073.41;4875289;29;20041;-80
2022/03/09 07:16:18;;;;;;;0.00;0.00;;;;;;;5.75;62.58;99060.00;4870471;29;20039;-76
2022/03/09 07:18:44;;;;;;;0.47;0.30;;;;;;;5.85;61.88;99067.31;4891560;29;20071;-77
2022/03/09 07:21:09;;;;;;;0.35;0.35;;;;;;;5.82;61.01;99065.13;4879466;29;20029;-77
2022/03/09 07:23:34;;;;;;;0.52;0.52;;;;;;;5.88;60.38;99060.72;4880169;29;20637;-77
2022/03/09 07:26:00;;;;;;;0.05;0.05;;;;;;;5.79;60.24;99059.53;4873629;29;20028;-78
2022/03/09 07:28:25;;;;;;;0.00;0.00;;;;;;;5.78;61.10;99061.38;4881155;29;20036;-77
2022/03/09 07:30:51;;;;;;;1.50;1.50;;;;;;;5.80;61.04;99056.63;4873390;29;20065;-77
2022/03/09 07:33:17;;;;;;;0.25;0.25;;;;;;;5.79;60.72;99062.19;4878870;29;20040;-79
2022/03/09 07:35:45;;;;;;;1.50;0.30;;;;;;;5.70;61.23;99059.13;4877855;29;20100;-79
2022/03/09 07:38:10;;;;;;;0.10;0.10;;;;;;;5.70;60.24;99064.44;4882019;29;20091;-78
2022/03/09 07:40:36;;;;;;;0.20;0.20;;;;;;;5.73;60.76;99064.75;4880385;29;20044;-77
2022/03/09 07:43:02;;;;;;;1.05;1.05;;;;;;;5.80;61.68;99061.94;4865329;29;20488;-79
2022/03/09 07:45:27;;;;;;;0.10;0.10;;;;;;;5.74;60.58;99053.09;4882085;29;20172;-77
2022/03/09 07:47:52;;;;;;;0.00;0.00;;;;;;;5.86;60.66;99052.19;4888822;29;20049;-77
2022/03/09 07:50:18;;;;;;;2.08;1.65;;;;;;;5.85;59.70;99040.78;4862745;29;20037;-79
2022/03/09 07:52:53;;;;;;;0.40;0.40;;;;;;;5.91;59.97;99047.75;4881505;29;20033;-81
2022/03/09 07:55:19;;;;;;;1.70;1.60;;;;;;;5.81;58.77;99042.31;4894414;29;20021;-80
2022/03/09 07:57:45;;;;;;;0.22;0.22;;;;;;;5.88;59.22;99048.25;4899651;29;20029;-80
2022/03/09 08:00:11;;;;;;;1.65;0.80;;;;;;;5.91;59.54;99053.06;4889217;29;20112;-79
2022/03/09 08:02:39;;;;;;;1.17;1.10;;;;;;;5.97;58.94;99061.09;4880905;29;20397;-81
2022/03/09 08:05:05;;;;;;;0.13;0.13;;;;;;;5.97;60.18;99063.75;4897987;29;20020;-78
2022/03/09 08:07:31;;;;;;;0.30;0.30;;;;;;;6.05;59.63;99055.41;4880775;29;20028;-78
2022/03/09 08:09:57;;;;;;;0.00;0.00;;;;;;;5.92;57.95;99064.50;4897338;29;20054;-77
2022/03/09 08:12:22;;;;;;;0.47;0.47;;;;;;;5.84;58.62;99055.09;4903825;29;20020;-77
2022/03/09 08:14:48;;;;;;;0.28;0.28;;;;;;;5.70;58.84;99049.34;4916320;29;20559;-77
2022/03/09 08:17:14;;;;;;;0.00;0.00;;;;;;;5.71;57.41;99050.13;4916833;29;20028;-77
2022/03/09 08:19:40;;;;;;;0.60;0.60;;;;;;;5.53;58.88;99048.53;4913009;29;20080;-78
2022/03/09 08:22:07;;;;;;;1.65;0.75;;;;;;;5.48;56.62;99059.88;4898109;29;20071;-78
2022/03/09 08:24:33;;;;;;;0.57;0.57;;;;;;;5.41;56.67;99046.78;4877238;29;20025;-79
2022/03/09 08:26:59;;;;;;;1.42;1.33;;;;;;;5.32;58.75;99058.81;4861777;29;20127;-78
2022/03/09 08:29:25;;;;;;;0.98;0.98;;;;;;;5.29;58.96;99062.75;4879068;29;20044;-79
2022/03/09 08:31:50;;;;;;;0.82;0.77;;;;;;;5.20;58.38;99052.78;4862181;29;20037;-78
2022/03/09 08:34:16;;;;;;;1.67;1.58;;;;;;;5.27;60.41;99053.44;4879062;29;20437;-78
2022/03/09 08:36:41;;;;;;;0.30;0.30;;;;;;;5.33;60.19;99062.28;4888897;29;20534;-78
2022/03/09 08:39:07;;;;;;;0.20;0.20;;;;;;;5.35;60.19;99058.34;4889028;29;20025;-78
2022/03/09 08:41:32;;;;;;;0.10;0.10;;;;;;;5.25;60.79;99058.19;4878191;29;20115;-76
2022/03/09 08:43:58;;;;;;;0.00;0.00;;;;;;;5.28;61.42;99058.53;4878716;29;20401;-76
2022/03/09 08:46:23;;;;;;;0.32;0.32;;;;;;;5.35;61.54;99058.34;4877230;29;20033;-77
2022/03/09 08:48:49;;;;;;;0.22;0.22;;;;;;;5.48;61.72;99056.41;4878224;29;20037;-77
2022/03/09 08:51:17;;;;;;;0.00;0.00;;;;;;;5.56;59.23;99061.31;4878486;29;20044;-78
2022/03/09 08:53:43;;;;;;;0.00;0.00;;;;;;;5.49;57.73;99061.47;4878306;29;20033;-76
2022/03/09 08:56:10;;;;;;;0.95;0.95;;;;;;;5.45;58.41;99055.06;4878384;29;20112;-77
2022/03/09 08:58:35;;;;;;;0.25;0.25;;;;;;;5.32;58.28;99063.31;4878435;29;20060;-78
2022/03/09 09:01:01;;;;;;;0.70;0.70;;;;;;;5.25;56.60;99056.34;4877925;29;20056;-78
2022/03/09 09:03:26;;;;;;;0.00;0.00;;;;;;;5.18;57.91;99061.00;4878190;29;20072;-77
2022/03/09 09:05:52;;;;;;;0.10;0.10;;;;;;;5.19;59.08;99061.78;4876593;29;20029;-78
2022/03/09 09:08:18;;;;;;;0.30;0.30;;;;;;;5.25;59.13;99060.84;4878289;29;20029;-79
2022/03/09 09:10:43;;;;;;;0.00;0.00;;;;;;;5.24;59.53;99067.97;4877922;29;20040;-77
2022/03/09 09:13:10;;;;;;;0.30;0.30;;;;;;;5.14;59.01;99059.88;4892292;29;20033;-77
2022/03/09 09:15:36;;;;;;;0.82;0.82;;;;;;;5.17;59.17;99062.03;4878045;29;20033;-78
2022/03/09 09:18:05;;;;;;;0.28;0.28;;;;;;;5.22;59.14;99056.00;4877778;29;20401;-78
2022/03/09 09:20:30;;;;;;;0.20;0.20;;;;;;;5.17;57.82;99062.03;4876609;29;20092;-78
2022/03/09 09:22:57;;;;;;;0.63;0.63;;;;;;;5.22;58.95;99063.97;4877719;29;20044;-77
2022/03/09 09:25:24;;;;;;;0.43;0.43;;;;;;;5.26;58.26;99060.59;4878027;29;20029;-77
2022/03/09 09:27:50;;;;;;;0.25;0.25;;;;;;;5.22;55.26;99056.81;4876377;29;20056;-77
2022/03/09 09:30:16;;;;;;;0.20;0.20;;;;;;;5.39;55.90;99056.81;4877705;29;20108;-77
2022/03/09 09:32:42;;;;;;;0.00;0.00;;;;;;;5.32;54.88;99060.69;4877766;29;20104;-78
2022/03/09 09:35:10;;;;;;;0.10;0.10;;;;;;;5.24;55.17;99057.38;4876282;29;20408;-77
2022/03/09 09:37:37;;;;;;;0.20;0.20;;;;;;;5.11;56.49;99061.16;4877738;29;20035;-78
2022/03/09 09:40:03;;;;;;;0.20;0.20;;;;;;;5.05;57.44;99061.28;4877499;29;20116;-78
2022/03/09 09:42:31;;;;;;;0.00;0.00;;;;;;;5.02;58.31;99049.31;4877910;29;20041;-77
2022/03/09 09:45:00;;;;;;;4.43;0.63;;;;;;;5.05;58.12;99048.03;4877364;29;20029;-77
2022/03/09 09:47:27;;;;;;;1.27;1.27;;;;;;;5.03;58.38;99058.06;4877618;29;20120;-77
2022/03/09 09:49:52;;;;;;;0.00;0.00;;;;;;;5.00;58.16;99047.97;4877440;29;20085;-77
2022/03/09 09:52:24;;;;;;;0.52;0.52;;;;;;;5.03;57.99;99047.47;4877310;29;20461;-77
2022/03/09 09:54:53;;;;;;;1.42;0.22;;;;;;;5.13;59.14;99040.50;4877280;29;20091;-78
2022/03/09 09:57:18;;;;;;;;;;;;;;;5.21;55.74;99036.66;4878055;29;20035;-77
2022/03/09 09:59:44;;;;;;;1.00;1.00;;;;;;;5.28;55.52;99039.97;4877771;29;20423;-77
2022/03/09 10:02:10;;;;;;;0.05;0.05;;;;;;;5.40;55.92;99045.16;4860546;29;20033;-77
2022/03/09 10:04:35;;;;;;;0.38;0.38;;;;;;;5.36;53.47;99035.28;4877625;29;20532;-77
2022/03/09 10:07:00;;;;;;;1.20;1.15;;;;;;;5.37;52.69;99034.22;4877165;29;20405;-76
2022/03/09 10:09:37;;;;;;;7.60;1.75;;;;;;;5.26;53.86;99033.25;4876210;29;20041;-77
2022/03/09 10:12:05;;;;;;;0.38;0.38;;;;;;;5.27;53.71;99030.41;4876370;29;20120;-76
2022/03/09 10:14:52;;;;;;;0.20;0.20;;;;;;;5.25;54.58;99042.28;4880619;29;20032;-77
2022/03/09 10:17:28;;;;;;;0.10;0.10;;;;;;;5.25;55.43;99029.81;4886225;29;20033;-76
2022/03/09 10:20:11;;;;;;;0.20;0.20;;;;;;;5.33;55.47;99023.31;4877254;29;20512;-76
2022/03/09 10:22:41;;;;;;;0.20;0.20;;;;;;;5.39;55.81;99030.28;4877418;29;20080;-77
2022/03/09 10:25:10;;;;;;;0.75;0.70;;;;;;;5.48;55.75;99028.06;4864270;29;22329;-76
2022/03/09 10:27:43;;;;;;;0.20;0.20;;;;;;;5.66;55.62;99026.97;4878732;29;20029;-78
2022/03/09 10:30:11;;;;;;;1.95;0.57;;;;;;;5.75;53.65;99022.84;4863319;29;20060;-78
2022/03/09 10:32:54;;;;;;;0.00;0.00;;;;;;;5.81;54.72;99017.63;4896356;29;20028;-78
2022/03/09 10:35:27;;;;;;;0.00;0.00;;;;;;;6.01;52.91;99014.47;4879243;29;20029;-78
2022/03/09 10:37:52;;;;;;;0.00;0.00;;;;;;;6.22;53.73;99013.66;4879108;29;20033;-77
2022/03/09 10:40:20;;;;;;;0.00;0.00;;;;;;;6.39;53.24;99010.13;4878687;29;20045;-77
2022/03/09 10:42:47;;;;;;;0.10;0.10;;;;;;;6.40;51.63;99007.22;4897192;29;20033;-77
2022/03/09 10:45:14;;;;;;;0.28;0.28;;;;;;;6.40;52.30;99007.22;4882881;29;20415;-78
2022/03/09 10:47:43;;;;;;;0.10;0.10;;;;;;;6.47;52.39;99001.72;4882386;29;20051;-78
2022/03/09 10:50:24;;;;;;;0.65;0.65;;;;;;;6.45;50.97;99008.34;4882239;29;20040;-78
2022/03/09 10:52:56;;;;;;;0.00;0.00;;;;;;;6.44;51.21;99004.88;4899177;29;20043;-77
2022/03/09 10:55:23;;;;;;;0.00;0.00;;;;;;;6.43;51.16;98995.28;4882463;29;20095;-78
2022/03/09 10:57:50;;;;;;;0.00;0.00;;;;;;;6.45;51.40;98995.06;4899079;29;20064;-78
2022/03/09 11:00:33;;;;;;;0.00;0.00;;;;;;;6.46;50.15;98997.44;4882150;29;20064;-79
2022/03/09 11:03:05;;;;;;;0.90;0.90;;;;;;;6.51;50.78;98986.88;4882035;29;20063;-79
2022/03/09 11:05:31;;;;;;;0.00;0.00;;;;;;;6.47;50.30;98987.63;4882049;29;20495;-79
2022/03/09 11:07:57;;;;;;;0.10;0.10;;;;;;;6.50;49.82;98995.88;4881955;29;20098;-78
2022/03/09 11:10:25;;;;;;;0.00;0.00;;;;;;;6.39;49.26;98991.53;4882204;29;20029;-80
2022/03/09 11:12:51;;;;;;;1.50;0.57;;;;;;;6.31;49.63;99013.22;4881847;29;20453;-78
2022/03/09 11:15:21;;;;;;;0.08;0.08;;;;;;;5.67;56.11;99011.88;4882143;29;20029;-78
2022/03/09 11:17:48;;;;;;;0.15;0.15;;;;;;;5.32;57.42;98999.69;4881914;29;20020;-78
2022/03/09 11:20:16;;;;;;;0.00;0.00;;;;;;;5.03;58.35;98999.75;4881874;29;20714;-77
2022/03/09 11:22:42;;;;;;;0.43;0.43;;;;;;;4.74;58.42;99015.72;4899188;29;20024;-77
2022/03/09 11:25:09;;;;;;;2.28;2.17;;;;;;;4.32;60.82;99011.50;4881605;29;20132;-77
2022/03/09 11:27:43;;;;;;;0.15;0.15;;;;;;;3.79;64.24;99013.34;4882081;29;20032;-78
2022/03/09 11:30:39;;;;;;;0.55;0.55;;;;;;;3.36;67.72;99018.75;4883573;29;20025;-84
2022/03/09 11:33:43;;;;;;;0.00;0.00;;;;;;;2.98;71.71;99006.78;4879994;29;20056;-77
2022/03/09 11:36:21;;;;;;;0.45;0.45;;;;;;;2.72;73.04;99011.41;4881653;29;20058;-80
2022/03/09 11:38:48;;;;;;;1.60;1.45;;;;;;;2.43;74.05;99013.03;4880420;29;20064;-79
2022/03/09 11:41:21;;;;;;;0.10;0.10;;;;;;;2.39;74.23;99009.22;4895963;29;20048;-79
2022/03/09 11:43:47;;;;;;;0.00;0.00;;;;;;;2.31;73.41;98993.72;4900365;29;20036;-79
2022/03/09 11:46:12;;;;;;;0.63;0.63;;;;;;;2.18;71.37;99016.56;4900397;29;20034;-79
2022/03/09 11:48:56;;;;;;;11.75;5.25;;;;;;;2.16;72.84;98999.34;4917519;29;20040;-79
2022/03/09 11:51:26;;;;;;;13.57;2.45;;;;;;;2.12;73.19;98998.19;4900780;29;20535;-81
2022/03/09 11:53:53;;;;;;;0.50;0.50;;;;;;;2.15;73.79;98987.19;4899315;29;20040;-79
2022/03/09 11:56:27;;;;;;;0.95;0.95;;;;;;;2.14;74.84;98990.88;4899786;29;20028;-79
2022/03/09 11:59:11;;;;;;;0.52;0.52;;;;;;;2.12;74.65;98983.16;4900036;29;20176;-79
2022/03/09 12:01:58;;;;;;;0.70;0.70;;;;;;;2.17;74.13;98987.78;4905891;29;20036;-80
2022/03/09 12:04:42;;;;;;;0.52;0.52;;;;;;;2.27;74.26;98988.06;4868664;29;20137;-78
2022/03/09 12:07:37;;;;;;;0.15;0.15;;;;;;;2.40;74.23;98979.16;4882314;29;20067;-80
2022/03/09 12:10:05;;;;;;;2.90;2.20;;;;;;;2.49;74.32;98984.91;4881440;29;20194;-79
2022/03/09 12:12:33;;;;;;;1.02;1.02;;;;;;;2.59;73.87;98982.56;4900547;29;20068;-79
2022/03/09 12:15:07;;;;;;;0.00;0.00;;;;;;;2.68;73.58;98986.47;4899427;29;20032;-78
2022/03/09 12:17:39;;;;;;;0.20;0.20;;;;;;;2.77;73.51;98986.16;4894558;29;20021;-78
2022/03/09 12:20:18;;;;;;;0.45;0.45;;;;;;;2.79;73.64;98986.75;4866234;29;20037;-77
2022/03/09 12:23:03;;;;;;;0.63;0.63;;;;;;;2.78;70.96;99004.41;4877865;29;20033;-78
2022/03/09 12:25:43;;;;;;;0.13;0.13;;;;;;;2.79;72.58;98999.94;4879127;29;20040;-78
2022/03/09 12:31:07;;;;;;;6.32;1.75;;;;;;;2.76;73.42;98985.38;4878890;29;20056;-76
2022/03/09 12:33:38;;;;;;;0.93;0.85;;;;;;;2.72;72.73;98990.28;4880177;29;20556;-77